Main page
METAR-TAF:

METAR-TAF

Airports :

Marabá Airport

Marabá, Pará, Brazil

latitude: 05-21S, longitude: 049-09W, elevation: 95 m

Current weather observation

The report was made 20 minutes ago, at 03:00 UTC
Calm wind
Temperature 26°C
Humidity 94%
Pressure 1009 hPa
Visibility 10 km or more
no clouds below 1500 m and no cumulonimbus

METAR: SBMA 200300Z 00000KT CAVOK 26/25 Q1009

Time: 00:20 (03:20 UTC)

Forecast

The report was made 5 hours and 20 minutes ago, at 22:00 UTC
Forecast valid from 20 at 00 UTC to 20 at 12 UTC
Wind 3 kt from the West/Northwest
Visibility 10 km or more
Scattered clouds at a height of 2500 ft
Few clouds at a height of 3000 ft, Towering cumulus.
Becoming
from 20 at 03 UTC to 20 at 05 UTC
Wind kt from the North
Visibility: 5000 m
Few clouds at a height of 1500 ft
mist

TAF: SBMA 192200Z 2000/2012 30003KT 9999 SCT025 FEW030TCU TN24/2006Z T X27/2012Z BECMG 2003/2005 00000KT 5000 BR FEW015 RMK PEC

Weather observations and forecasts of more than 4000 airports (METAR and TAF reports).

The available stations are represented by yellow and red dots on the map.

Hover mouse over dot to see the name of the station.

Then click to see weather observations and forecasts.

To change the map : click on the green buttons with a black cross to zoom in, on the green button with a dash to zoom out, or on the green arrows for adjacent maps.


METAR-TAF: